createdAt,value
2019-01-20T00:00:28.874Z,2.51
2019-01-20T00:03:03.103Z,2.60
2019-01-20T00:05:36.491Z,2.57
2019-01-20T00:08:09.901Z,2.62
2019-01-20T00:10:43.405Z,2.71
2019-01-20T00:13:17.040Z,2.60
2019-01-20T00:15:51.011Z,2.67
2019-01-20T00:18:23.613Z,2.68
2019-01-20T00:20:57.116Z,2.49
2019-01-20T00:23:30.237Z,2.59
2019-01-20T00:26:04.111Z,2.63
2019-01-20T00:28:46.270Z,2.61
2019-01-20T00:31:19.621Z,2.51
2019-01-20T00:33:52.308Z,2.51
2019-01-20T00:36:25.708Z,2.53
2019-01-20T00:38:59.059Z,2.45
2019-01-20T00:41:32.417Z,2.40
2019-01-20T00:44:05.742Z,2.20
2019-01-20T00:46:39.001Z,2.23
2019-01-20T00:49:15.692Z,2.19
2019-01-20T00:51:49.124Z,2.22
2019-01-20T00:54:22.379Z,2.10
2019-01-20T00:56:55.701Z,2.14
2019-01-20T00:59:27.881Z,2.12
2019-01-20T01:02:01.021Z,2.15
2019-01-20T01:04:33.431Z,2.19
2019-01-20T01:07:08.329Z,2.19
2019-01-20T01:09:41.401Z,2.21
2019-01-20T01:12:17.439Z,2.18
2019-01-20T01:14:50.595Z,2.20
2019-01-20T01:17:22.746Z,2.26
2019-01-20T01:19:55.841Z,2.27
2019-01-20T01:22:29.194Z,2.23
2019-01-20T01:25:02.663Z,2.20
2019-01-20T01:27:37.171Z,2.22
2019-01-20T01:30:18.417Z,2.26
2019-01-20T01:32:52.323Z,2.17
2019-01-20T01:35:26.287Z,2.28
2019-01-20T01:37:59.669Z,2.19
2019-01-20T01:40:33.111Z,2.18
2019-01-20T01:43:07.172Z,2.11
2019-01-20T01:45:40.654Z,2.12
2019-01-20T01:48:13.460Z,2.11
2019-01-20T01:50:46.188Z,2.15
2019-01-20T01:53:19.863Z,2.10
2019-01-20T01:55:53.058Z,2.04
2019-01-20T01:58:26.464Z,2.09
2019-01-20T02:00:58.969Z,2.14
2019-01-20T02:03:32.310Z,2.01
2019-01-20T02:06:05.604Z,1.96
2019-01-20T02:08:39.579Z,1.97
2019-01-20T02:11:12.217Z,1.90
2019-01-20T02:13:45.643Z,1.89
2019-01-20T02:16:18.923Z,1.83
2019-01-20T02:18:52.222Z,1.85
2019-01-20T02:21:25.469Z,1.81
2019-01-20T02:23:58.303Z,1.75
2019-01-20T02:26:31.355Z,1.77
2019-01-20T02:29:08.010Z,1.87
2019-01-20T02:31:41.118Z,1.82
2019-01-20T02:34:15.210Z,1.76
2019-01-20T02:36:48.231Z,1.90
2019-01-20T02:39:21.631Z,1.87
2019-01-20T02:41:55.372Z,1.92
2019-01-20T02:44:28.215Z,1.85
2019-01-20T02:47:01.572Z,1.80
2019-01-20T02:49:34.809Z,1.82
2019-01-20T02:52:08.559Z,1.83
2019-01-20T02:54:41.925Z,1.77
2019-01-20T02:57:15.257Z,1.84
2019-01-20T02:59:48.433Z,1.73
2019-01-20T03:02:20.735Z,1.88
2019-01-20T03:04:54.101Z,1.85
2019-01-20T03:07:26.722Z,1.85
2019-01-20T03:09:59.897Z,1.78
2019-01-20T03:12:32.170Z,1.81
2019-01-20T03:15:05.974Z,1.88
2019-01-20T03:17:39.315Z,1.76
2019-01-20T03:20:15.263Z,1.89
2019-01-20T03:22:49.629Z,1.98
2019-01-20T03:25:22.844Z,1.98
2019-01-20T03:28:04.395Z,2.13
2019-01-20T03:30:50.013Z,2.08
2019-01-20T03:33:34.515Z,1.94
2019-01-20T03:36:09.437Z,1.93
2019-01-20T03:38:42.780Z,1.91
2019-01-20T03:41:16.053Z,1.95
2019-01-20T03:43:50.529Z,1.90
2019-01-20T03:46:23.869Z,1.99
2019-01-20T03:48:57.319Z,1.95
2019-01-20T03:51:30.186Z,2.02
2019-01-20T03:54:03.289Z,1.95
2019-01-20T03:56:35.357Z,1.99
2019-01-20T03:59:09.398Z,1.88
2019-01-20T04:01:42.682Z,1.85
2019-01-20T04:04:14.984Z,1.90
2019-01-20T04:06:49.033Z,1.89
2019-01-20T04:09:23.801Z,1.80
2019-01-20T04:11:57.320Z,1.86
2019-01-20T04:14:30.357Z,1.87
2019-01-20T04:17:03.615Z,1.85
2019-01-20T04:19:37.661Z,1.90
2019-01-20T04:22:11.847Z,1.93
2019-01-20T04:24:44.703Z,1.93
2019-01-20T04:27:20.281Z,1.89
2019-01-20T04:30:05.146Z,1.85
2019-01-20T04:32:49.322Z,1.99
2019-01-20T04:35:33.485Z,1.96
2019-01-20T04:38:14.919Z,1.93
2019-01-20T04:40:48.261Z,1.94
2019-01-20T04:43:21.886Z,1.93
2019-01-20T04:45:55.249Z,2.05
2019-01-20T04:48:28.694Z,2.06
2019-01-20T04:51:01.932Z,2.01
2019-01-20T04:53:34.260Z,2.10
2019-01-20T04:56:07.435Z,2.10
2019-01-20T04:58:41.051Z,2.16
2019-01-20T05:01:14.679Z,2.17
2019-01-20T05:03:48.181Z,2.16
2019-01-20T05:06:22.543Z,2.19
2019-01-20T05:08:55.875Z,2.26
2019-01-20T05:11:28.674Z,2.25
2019-01-20T05:14:02.727Z,2.24
2019-01-20T05:16:35.996Z,2.33
2019-01-20T05:19:08.027Z,2.07
2019-01-20T05:21:41.399Z,2.18
2019-01-20T05:24:15.703Z,2.07
2019-01-20T05:26:48.507Z,1.96
2019-01-20T05:29:31.425Z,2.15
2019-01-20T05:32:08.895Z,2.06
2019-01-20T05:34:41.643Z,1.90
2019-01-20T05:37:15.372Z,1.89
2019-01-20T05:39:48.450Z,2.04
2019-01-20T05:42:21.684Z,1.91
2019-01-20T05:44:53.881Z,2.04
2019-01-20T05:47:27.590Z,2.02
2019-01-20T05:50:00.866Z,2.07
2019-01-20T05:52:35.564Z,2.18
2019-01-20T05:55:10.497Z,2.08
2019-01-20T05:57:43.669Z,1.99
2019-01-20T06:00:19.543Z,2.07
2019-01-20T06:02:53.922Z,2.01
2019-01-20T06:05:27.410Z,2.10
2019-01-20T06:08:02.688Z,1.99
2019-01-20T06:10:36.280Z,2.18
2019-01-20T06:13:09.728Z,2.14
2019-01-20T06:15:44.892Z,2.01
2019-01-20T06:18:18.534Z,2.08
2019-01-20T06:20:52.125Z,2.12
2019-01-20T06:23:25.250Z,2.11
2019-01-20T06:25:58.640Z,2.20
2019-01-20T06:28:41.702Z,2.20
2019-01-20T06:31:27.363Z,2.22
2019-01-20T06:34:10.403Z,2.11
2019-01-20T06:36:44.286Z,2.15
2019-01-20T06:39:31.297Z,2.13
2019-01-20T06:42:08.603Z,2.29
2019-01-20T06:44:42.722Z,2.36
2019-01-20T06:47:15.186Z,2.60
2019-01-20T06:49:48.491Z,2.73
2019-01-20T06:52:21.819Z,2.75
2019-01-20T06:54:55.639Z,2.80
2019-01-20T06:57:28.722Z,2.88
2019-01-20T07:00:02.505Z,2.88
2019-01-20T07:02:36.141Z,2.60
2019-01-20T07:05:09.859Z,2.76
2019-01-20T07:07:43.517Z,2.69
2019-01-20T07:10:17.232Z,2.61
2019-01-20T07:12:51.146Z,2.62
2019-01-20T07:15:25.819Z,2.76
2019-01-20T07:17:59.615Z,2.78
2019-01-20T07:20:32.501Z,2.76
2019-01-20T07:23:08.693Z,2.82
2019-01-20T07:25:42.203Z,2.97
2019-01-20T07:28:16.839Z,2.82
2019-01-20T07:30:52.253Z,2.74
2019-01-20T07:33:27.406Z,2.84
2019-01-20T07:36:02.371Z,2.69
2019-01-20T07:38:36.438Z,2.91
2019-01-20T07:41:09.933Z,2.90
2019-01-20T07:43:44.465Z,2.98
2019-01-20T07:46:18.145Z,3.09
2019-01-20T07:48:51.900Z,2.96
2019-01-20T07:51:25.789Z,2.99
2019-01-20T07:54:00.013Z,2.96
2019-01-20T07:56:34.994Z,2.94
2019-01-20T07:59:08.669Z,2.94
2019-01-20T08:01:41.591Z,2.93
2019-01-20T08:04:15.390Z,3.15
2019-01-20T08:06:48.896Z,2.97
2019-01-20T08:09:23.003Z,3.12
2019-01-20T08:11:56.444Z,3.22
2019-01-20T08:14:30.217Z,3.22
2019-01-20T08:17:04.184Z,3.27
2019-01-20T08:19:37.620Z,3.28
2019-01-20T08:22:10.756Z,3.43
2019-01-20T08:24:43.467Z,3.41
2019-01-20T08:27:17.338Z,3.55
2019-01-20T08:30:00.490Z,3.51
2019-01-20T08:32:41.756Z,3.43
2019-01-20T08:35:15.781Z,3.36
2019-01-20T08:37:49.573Z,3.22
2019-01-20T08:40:31.199Z,3.34
2019-01-20T08:43:05.252Z,3.25
2019-01-20T08:46:05.769Z,3.29
2019-01-20T08:48:39.241Z,3.33
2019-01-20T08:51:14.053Z,3.47
2019-01-20T08:53:47.421Z,3.53
2019-01-20T08:56:21.171Z,3.47
2019-01-20T08:58:54.611Z,3.62
2019-01-20T09:01:28.585Z,3.53
2019-01-20T09:04:02.279Z,3.81
2019-01-20T09:06:35.905Z,3.82
2019-01-20T09:09:10.693Z,3.96
2019-01-20T09:11:44.196Z,3.97
2019-01-20T09:14:17.667Z,3.95
2019-01-20T09:16:54.547Z,4.07
2019-01-20T09:19:27.364Z,3.94
2019-01-20T09:22:01.072Z,3.86
2019-01-20T09:24:34.985Z,4.01
2019-01-20T09:27:08.477Z,3.73
2019-01-20T09:29:55.121Z,3.88
2019-01-20T09:32:41.208Z,3.69
2019-01-20T09:35:25.213Z,3.72
2019-01-20T09:37:59.650Z,3.67
2019-01-20T09:40:33.080Z,3.66
2019-01-20T09:43:06.787Z,3.40
2019-01-20T09:45:40.966Z,3.57
2019-01-20T09:48:14.284Z,3.56
2019-01-20T09:50:47.957Z,3.65
2019-01-20T09:53:21.566Z,3.82
2019-01-20T09:55:55.436Z,4.01
2019-01-20T09:58:29.384Z,4.03
2019-01-20T10:01:02.988Z,4.33
2019-01-20T10:03:36.810Z,4.30
2019-01-20T10:06:10.651Z,4.40
2019-01-20T10:08:45.602Z,4.44
2019-01-20T10:11:19.441Z,4.45
2019-01-20T10:13:55.010Z,4.60
2019-01-20T10:16:28.963Z,4.43
2019-01-20T10:19:03.250Z,4.73
2019-01-20T10:21:37.745Z,4.54
2019-01-20T10:24:11.575Z,4.62
2019-01-20T10:26:45.292Z,4.54
2019-01-20T10:29:30.151Z,4.32
2019-01-20T10:32:08.734Z,4.16
2019-01-20T10:34:43.306Z,4.23
2019-01-20T10:37:16.616Z,4.21
2019-01-20T10:39:50.084Z,4.07
2019-01-20T10:42:24.236Z,4.06
2019-01-20T10:44:58.916Z,3.90
2019-01-20T10:47:32.579Z,3.96
2019-01-20T10:50:07.256Z,4.06
2019-01-20T10:52:41.149Z,4.00
2019-01-20T10:55:14.971Z,3.98
2019-01-20T10:57:48.544Z,3.98
2019-01-20T11:00:25.481Z,3.92
2019-01-20T11:02:59.412Z,3.97
2019-01-20T11:05:36.134Z,4.06
2019-01-20T11:08:11.437Z,4.26
2019-01-20T11:10:44.865Z,4.17
2019-01-20T11:13:18.786Z,4.29
2019-01-20T11:15:53.459Z,4.24
2019-01-20T11:18:27.113Z,4.23
2019-01-20T11:21:01.133Z,4.11
2019-01-20T11:23:35.530Z,4.14
2019-01-20T11:26:08.888Z,3.87
2019-01-20T11:28:42.334Z,3.91
2019-01-20T11:31:29.749Z,3.90
2019-01-20T11:34:15.722Z,4.08
2019-01-20T11:36:49.263Z,4.18
2019-01-20T11:39:23.853Z,4.08
2019-01-20T11:41:57.641Z,4.17
2019-01-20T11:44:30.949Z,4.21
2019-01-20T11:47:04.425Z,4.36
2019-01-20T11:49:38.529Z,4.43
2019-01-20T11:52:12.363Z,4.53
2019-01-20T11:54:46.932Z,4.49
2019-01-20T11:57:20.294Z,4.54
2019-01-20T11:59:55.373Z,4.47
2019-01-20T12:02:28.884Z,4.28
2019-01-20T12:05:02.058Z,4.38
2019-01-20T12:07:34.915Z,4.50
2019-01-20T12:10:08.984Z,4.45
2019-01-20T12:12:43.447Z,4.32
2019-01-20T12:15:17.494Z,4.25
2019-01-20T12:17:52.591Z,4.25
2019-01-20T12:20:27.167Z,4.16
2019-01-20T12:23:00.527Z,4.13
2019-01-20T12:25:33.867Z,4.13
2019-01-20T12:28:08.573Z,4.10
2019-01-20T12:30:54.543Z,4.32
2019-01-20T12:33:39.292Z,4.44
2019-01-20T12:36:23.783Z,4.55
2019-01-20T12:39:09.271Z,4.64
2019-01-20T12:41:49.452Z,4.42
2019-01-20T12:44:23.873Z,4.56
2019-01-20T12:46:56.835Z,4.53
2019-01-20T12:49:30.215Z,4.48
2019-01-20T12:52:03.795Z,4.60
2019-01-20T12:54:38.813Z,4.64
2019-01-20T12:57:13.327Z,4.93
2019-01-20T12:59:48.112Z,4.97
2019-01-20T13:02:21.269Z,4.70
2019-01-20T13:04:56.474Z,4.49
2019-01-20T13:07:30.597Z,4.52
2019-01-20T13:10:05.187Z,4.41
2019-01-20T13:12:40.427Z,4.33
2019-01-20T13:15:16.547Z,4.17
2019-01-20T13:17:50.132Z,4.32
2019-01-20T13:20:24.459Z,4.32
2019-01-20T13:22:59.018Z,4.45
2019-01-20T13:25:33.058Z,4.48
2019-01-20T13:28:07.461Z,4.51
2019-01-20T13:30:52.044Z,4.61
2019-01-20T13:33:28.033Z,4.55
2019-01-20T13:36:07.162Z,4.70
2019-01-20T13:38:37.513Z,4.74
2019-01-20T13:41:23.031Z,4.50
2019-01-20T13:43:58.024Z,4.61
2019-01-20T13:46:31.513Z,4.62
2019-01-20T13:49:04.995Z,4.30
2019-01-20T13:51:39.597Z,4.16
2019-01-20T13:54:13.334Z,4.26
2019-01-20T13:56:46.772Z,4.15
2019-01-20T13:59:22.637Z,4.07
2019-01-20T14:01:56.479Z,4.36
2019-01-20T14:04:29.715Z,4.50
2019-01-20T14:07:02.595Z,4.57
2019-01-20T14:09:36.394Z,4.67
2019-01-20T14:12:09.860Z,4.71
2019-01-20T14:14:43.261Z,4.66
2019-01-20T14:17:16.744Z,4.68
2019-01-20T14:19:49.693Z,4.52
2019-01-20T14:22:23.394Z,4.58
2019-01-20T14:24:57.804Z,4.60
2019-01-20T14:27:31.408Z,4.59
2019-01-20T14:30:08.996Z,4.69
2019-01-20T14:32:54.112Z,4.41
2019-01-20T14:35:28.607Z,4.59
2019-01-20T14:38:02.311Z,4.70
2019-01-20T14:40:35.169Z,4.72
2019-01-20T14:43:09.127Z,4.74
2019-01-20T14:45:42.965Z,4.68
2019-01-20T14:48:16.452Z,4.73
2019-01-20T14:50:50.563Z,4.74
2019-01-20T14:53:23.954Z,4.83
2019-01-20T14:55:56.159Z,4.83
2019-01-20T14:58:29.996Z,4.68
2019-01-20T15:01:03.802Z,4.71
2019-01-20T15:03:37.231Z,4.68
2019-01-20T15:06:10.424Z,4.69
2019-01-20T15:08:43.375Z,4.74
2019-01-20T15:11:19.603Z,4.74
2019-01-20T15:13:53.987Z,4.68
2019-01-20T15:16:27.485Z,4.71
2019-01-20T15:19:01.929Z,4.74
2019-01-20T15:21:36.501Z,4.32
2019-01-20T15:24:11.459Z,3.99
2019-01-20T15:26:45.734Z,3.92
2019-01-20T15:29:20.299Z,4.13
2019-01-20T15:32:05.643Z,4.26
2019-01-20T15:34:51.820Z,4.22
2019-01-20T15:37:35.977Z,4.19
2019-01-20T15:40:14.299Z,3.90
2019-01-20T15:42:47.691Z,4.01
2019-01-20T15:45:22.261Z,4.07
2019-01-20T15:47:57.951Z,4.05
2019-01-20T15:50:33.148Z,4.03
2019-01-20T15:53:07.292Z,4.14
2019-01-20T15:55:40.935Z,4.11
2019-01-20T15:58:14.575Z,4.06
2019-01-20T16:00:47.990Z,4.11
2019-01-20T16:03:21.917Z,3.84
2019-01-20T16:05:55.704Z,3.93
2019-01-20T16:08:29.597Z,4.05
2019-01-20T16:11:03.236Z,3.95
2019-01-20T16:13:36.891Z,3.93
2019-01-20T16:16:11.229Z,4.03
2019-01-20T16:18:44.865Z,3.97
2019-01-20T16:21:18.594Z,3.94
2019-01-20T16:23:52.051Z,3.99
2019-01-20T16:26:25.548Z,4.00
2019-01-20T16:28:59.420Z,4.08
2019-01-20T16:31:45.710Z,4.09
2019-01-20T16:34:32.027Z,4.14
2019-01-20T16:37:09.996Z,4.15
2019-01-20T16:39:45.784Z,4.16
2019-01-20T16:42:18.884Z,4.19
2019-01-20T16:44:52.841Z,4.20
2019-01-20T16:47:26.376Z,4.24
2019-01-20T16:49:59.916Z,4.21
2019-01-20T16:52:33.140Z,4.16
2019-01-20T16:55:05.125Z,4.14
2019-01-20T16:57:39.494Z,4.14
2019-01-20T17:00:16.928Z,4.08
2019-01-20T17:02:51.229Z,4.08
2019-01-20T17:05:27.061Z,4.08
2019-01-20T17:08:00.661Z,4.05
2019-01-20T17:10:35.779Z,4.05
2019-01-20T17:13:11.021Z,4.03
2019-01-20T17:15:48.982Z,3.99
2019-01-20T17:18:24.453Z,3.99
2019-01-20T17:20:58.661Z,3.97
2019-01-20T17:23:33.243Z,3.91
2019-01-20T17:26:08.954Z,3.89
2019-01-20T17:28:43.033Z,3.86
2019-01-20T17:31:28.453Z,3.82
2019-01-20T17:34:09.308Z,3.79
2019-01-20T17:36:42.657Z,3.63
2019-01-20T17:39:16.187Z,3.60
2019-01-20T17:41:50.157Z,3.66
2019-01-20T17:44:23.591Z,3.71
2019-01-20T17:46:57.265Z,3.74
2019-01-20T17:49:31.729Z,3.77
2019-01-20T17:52:04.763Z,3.79
2019-01-20T17:54:38.629Z,3.82
2019-01-20T17:57:12.093Z,3.83
2019-01-20T17:59:45.857Z,3.84
2019-01-20T18:02:19.264Z,3.87
2019-01-20T18:04:52.793Z,3.86
2019-01-20T18:07:26.402Z,3.86
2019-01-20T18:10:00.355Z,3.87
2019-01-20T18:12:33.675Z,3.92
2019-01-20T18:15:07.134Z,3.88
2019-01-20T18:17:41.229Z,3.88
2019-01-20T18:20:18.962Z,3.91
2019-01-20T18:22:53.055Z,3.89
2019-01-20T18:25:26.764Z,3.89
2019-01-20T18:28:00.305Z,3.91
2019-01-20T18:30:33.537Z,3.88
2019-01-20T18:33:06.569Z,3.87
2019-01-20T18:35:42.577Z,3.81
2019-01-20T18:38:16.055Z,3.71
2019-01-20T18:40:49.592Z,3.62
2019-01-20T18:43:22.630Z,3.58
2019-01-20T18:46:01.601Z,3.57
2019-01-20T18:48:31.396Z,3.51
2019-01-20T18:51:05.458Z,3.43
2019-01-20T18:53:39.403Z,3.41
2019-01-20T18:56:13.347Z,3.40
2019-01-20T18:58:48.263Z,3.39
2019-01-20T19:01:22.749Z,3.33
2019-01-20T19:03:57.028Z,3.36
2019-01-20T19:06:31.471Z,3.37
2019-01-20T19:09:07.079Z,3.33
2019-01-20T19:11:41.440Z,3.34
2019-01-20T19:14:14.915Z,3.33
2019-01-20T19:16:48.866Z,3.33
2019-01-20T19:19:23.443Z,3.34
2019-01-20T19:21:57.176Z,3.34
2019-01-20T19:24:30.881Z,3.37
2019-01-20T19:27:04.663Z,3.40
2019-01-20T19:29:38.354Z,3.40
2019-01-20T19:32:15.998Z,3.40
2019-01-20T19:34:51.067Z,3.40
2019-01-20T19:37:24.711Z,3.44
2019-01-20T19:39:58.432Z,3.51
2019-01-20T19:42:31.644Z,3.50
2019-01-20T19:45:06.491Z,3.52
2019-01-20T19:47:43.189Z,3.58
2019-01-20T19:50:17.135Z,3.54
2019-01-20T19:52:50.525Z,3.53
2019-01-20T19:55:26.374Z,3.51
2019-01-20T19:58:00.263Z,3.48
2019-01-20T20:00:34.457Z,3.45
2019-01-20T20:03:09.265Z,3.40
2019-01-20T20:05:42.715Z,3.34
2019-01-20T20:08:16.512Z,3.37
2019-01-20T20:10:50.957Z,3.40
2019-01-20T20:13:26.447Z,3.37
2019-01-20T20:16:00.188Z,3.36
2019-01-20T20:18:34.403Z,3.31
2019-01-20T20:21:08.265Z,3.23
2019-01-20T20:23:41.979Z,3.27
2019-01-20T20:26:15.893Z,3.27
2019-01-20T20:28:49.629Z,3.36
2019-01-20T20:31:25.748Z,3.35
2019-01-20T20:34:09.693Z,3.34
2019-01-20T20:36:42.713Z,3.29
2019-01-20T20:39:16.271Z,3.33
2019-01-20T20:41:49.623Z,3.26
2019-01-20T20:44:22.448Z,3.23
2019-01-20T20:46:55.977Z,3.24
2019-01-20T20:49:29.669Z,3.26
2019-01-20T20:52:03.631Z,3.21
2019-01-20T20:54:40.355Z,3.23
2019-01-20T20:57:15.043Z,3.20
2019-01-20T20:59:49.055Z,2.96
2019-01-20T21:02:22.775Z,3.06
2019-01-20T21:04:56.227Z,3.09
2019-01-20T21:07:29.872Z,2.96
2019-01-20T21:10:04.063Z,3.01
2019-01-20T21:12:37.079Z,3.04
2019-01-20T21:15:11.420Z,3.02
2019-01-20T21:17:48.309Z,3.02
2019-01-20T21:20:22.586Z,3.00
2019-01-20T21:22:55.703Z,3.02
2019-01-20T21:25:29.344Z,2.97
2019-01-20T21:28:02.811Z,2.91
2019-01-20T21:30:36.603Z,2.87
2019-01-20T21:33:23.271Z,2.91
2019-01-20T21:36:06.689Z,2.83
2019-01-20T21:38:39.379Z,2.82
2019-01-20T21:41:12.743Z,2.84
2019-01-20T21:43:46.278Z,2.80
2019-01-20T21:46:20.385Z,2.77
2019-01-20T21:48:55.003Z,2.76
2019-01-20T21:51:28.679Z,2.67
2019-01-20T21:54:01.979Z,2.71
2019-01-20T21:56:35.234Z,2.69
2019-01-20T21:59:07.513Z,2.67
2019-01-20T22:01:41.002Z,2.60
2019-01-20T22:04:14.513Z,2.49
2019-01-20T22:06:47.601Z,2.44
2019-01-20T22:09:20.719Z,2.38
2019-01-20T22:11:54.145Z,2.40
2019-01-20T22:14:27.739Z,2.38
2019-01-20T22:17:02.143Z,2.40
2019-01-20T22:19:35.433Z,2.40
2019-01-20T22:22:09.423Z,2.30
2019-01-20T22:24:42.284Z,2.33
2019-01-20T22:27:15.708Z,2.43
2019-01-20T22:29:49.003Z,2.56
2019-01-20T22:32:22.495Z,2.59
2019-01-20T22:35:07.233Z,2.66
2019-01-20T22:37:42.000Z,2.65
2019-01-20T22:40:15.808Z,2.71
2019-01-20T22:42:48.690Z,2.68
2019-01-20T22:45:23.975Z,2.74
2019-01-20T22:47:57.427Z,2.75
2019-01-20T22:50:30.611Z,2.73
2019-01-20T22:53:02.767Z,2.71
2019-01-20T22:55:35.916Z,2.67
2019-01-20T22:58:09.421Z,2.61
2019-01-20T23:00:49.372Z,2.62
2019-01-20T23:03:23.650Z,2.62
2019-01-20T23:05:58.540Z,2.60
2019-01-20T23:08:32.097Z,2.58
2019-01-20T23:11:05.343Z,2.57
2019-01-20T23:13:38.499Z,2.58
2019-01-20T23:16:11.627Z,2.64
2019-01-20T23:18:45.328Z,2.67
2019-01-20T23:21:19.668Z,2.67
2019-01-20T23:23:53.271Z,2.71
2019-01-20T23:26:26.797Z,2.73
2019-01-20T23:29:00.358Z,2.86
2019-01-20T23:31:33.778Z,2.85
2019-01-20T23:34:10.543Z,2.86
2019-01-20T23:36:44.071Z,2.94
2019-01-20T23:39:17.735Z,2.94
2019-01-20T23:41:50.804Z,2.95
2019-01-20T23:44:24.242Z,2.96
2019-01-20T23:46:57.743Z,2.96
2019-01-20T23:49:31.541Z,2.96
2019-01-20T23:52:04.768Z,3.01
2019-01-20T23:54:36.407Z,2.99
2019-01-20T23:57:09.031Z,3.00
2019-01-20T23:59:42.471Z,2.92
